createdAt,value
2019-04-29T00:00:57.144Z,97956.57
2019-04-29T00:01:59.933Z,97960.24
2019-04-29T00:03:02.785Z,97958.34
2019-04-29T00:04:04.881Z,97958.95
2019-04-29T00:05:10.784Z,97950.73
2019-04-29T00:06:13.233Z,97947.59
2019-04-29T00:07:15.516Z,97953.56
2019-04-29T00:08:18.143Z,97944.77
2019-04-29T00:09:20.025Z,97948.17
2019-04-29T00:10:24.431Z,97946.04
2019-04-29T00:11:28.657Z,97942.06
2019-04-29T00:12:32.137Z,97949.36
2019-04-29T00:13:34.924Z,97943.87
2019-04-29T00:14:39.795Z,97940.52
2019-04-29T00:15:44.342Z,97943.87
2019-04-29T00:16:55.617Z,97939.51
2019-04-29T00:18:00.053Z,97938.18
2019-04-29T00:19:03.023Z,97944.14
2019-04-29T00:20:11.981Z,97939.14
2019-04-29T00:21:15.153Z,97938.31
2019-04-29T00:22:17.548Z,97942.06
2019-04-29T00:23:20.066Z,97930.97
2019-04-29T00:24:22.386Z,97930.83
2019-04-29T00:25:26.558Z,97928.53
2019-04-29T00:26:29.246Z,97929.69
2019-04-29T00:27:32.972Z,97917.97
2019-04-29T00:28:35.159Z,97920.94
2019-04-29T00:29:37.798Z,97919.73
2019-04-29T00:30:40.158Z,97921.89
2019-04-29T00:31:42.712Z,97917.78
2019-04-29T00:32:45.046Z,97916.81
2019-04-29T00:33:47.036Z,97920.66
2019-04-29T00:34:49.424Z,97911.89
2019-04-29T00:35:52.304Z,97916.72
2019-04-29T00:37:05.860Z,97917.25
2019-04-29T00:38:08.345Z,97918.13
2019-04-29T00:39:16.451Z,97920.64
2019-04-29T00:40:18.672Z,97919.51
2019-04-29T00:41:39.774Z,97917.06
2019-04-29T00:42:47.413Z,97926.05
2019-04-29T00:43:54.760Z,97926.97
2019-04-29T00:44:57.241Z,97924.91
2019-04-29T00:45:59.993Z,97927.95
2019-04-29T00:47:02.405Z,97929.23
2019-04-29T00:48:04.820Z,97928.70
2019-04-29T00:49:06.605Z,97933.89
2019-04-29T00:50:10.131Z,97926.81
2019-04-29T00:51:12.447Z,97924.91
2019-04-29T00:52:14.885Z,97924.64
2019-04-29T00:53:17.427Z,97926.10
2019-04-29T00:54:37.674Z,97923.49
2019-04-29T00:55:40.579Z,97916.90
2019-04-29T00:56:42.849Z,97924.42
2019-04-29T00:57:45.042Z,97924.51
2019-04-29T00:58:47.626Z,97922.87
2019-04-29T00:59:50.173Z,97919.52
2019-04-29T01:00:53.001Z,97917.17
2019-04-29T01:01:55.627Z,97915.80
2019-04-29T01:02:58.471Z,97919.52
2019-04-29T01:04:01.124Z,97915.62
2019-04-29T01:05:05.205Z,97915.17
2019-04-29T01:06:07.682Z,97909.60
2019-04-29T01:07:09.772Z,97903.94
2019-04-29T01:08:12.291Z,97900.97
2019-04-29T01:09:16.279Z,97898.28
2019-04-29T01:10:18.876Z,97903.05
2019-04-29T01:11:21.384Z,97892.09
2019-04-29T01:12:23.247Z,97887.75
2019-04-29T01:13:25.278Z,97888.81
2019-04-29T01:14:27.653Z,97883.51
2019-04-29T01:15:31.886Z,97885.23
2019-04-29T01:16:34.156Z,97878.07
2019-04-29T01:17:36.728Z,97875.23
2019-04-29T01:18:39.025Z,97871.75
2019-04-29T01:19:41.346Z,97872.71
2019-04-29T01:20:43.674Z,97871.08
2019-04-29T01:21:45.870Z,97870.73
2019-04-29T01:22:48.200Z,97864.00
2019-04-29T01:23:50.591Z,97870.95
2019-04-29T01:24:52.616Z,97868.16
2019-04-29T01:25:59.920Z,97867.37
2019-04-29T01:27:09.912Z,97866.75
2019-04-29T01:28:26.252Z,97860.64
2019-04-29T01:29:33.308Z,97856.53
2019-04-29T01:30:59.199Z,97856.77
2019-04-29T01:32:01.931Z,97855.70
2019-04-29T01:33:04.344Z,97852.86
2019-04-29T01:34:09.126Z,97847.43
2019-04-29T01:35:11.802Z,97849.91
2019-04-29T01:36:19.767Z,97855.12
2019-04-29T01:37:33.328Z,97853.18
2019-04-29T01:38:35.815Z,97851.53
2019-04-29T01:39:46.168Z,97864.23
2019-04-29T01:40:49.992Z,97859.00
2019-04-29T01:42:06.057Z,97862.46
2019-04-29T01:43:07.875Z,97860.24
2019-04-29T01:44:11.021Z,97875.49
2019-04-29T01:45:13.252Z,97879.03
2019-04-29T01:46:15.056Z,97872.45
2019-04-29T01:47:17.426Z,97874.84
2019-04-29T01:48:19.712Z,97876.06
2019-04-29T01:49:21.715Z,97874.66
2019-04-29T01:50:24.483Z,97880.80
2019-04-29T01:51:26.343Z,97879.84
2019-04-29T01:52:28.541Z,97874.08
2019-04-29T01:53:30.813Z,97876.19
2019-04-29T01:54:33.498Z,97871.39
2019-04-29T01:55:36.023Z,97872.19
2019-04-29T01:56:38.197Z,97868.79
2019-04-29T01:57:40.644Z,97871.81
2019-04-29T01:58:43.285Z,97869.50
2019-04-29T01:59:45.619Z,97873.98
2019-04-29T02:00:47.688Z,97867.45
2019-04-29T02:01:51.515Z,97874.98
2019-04-29T02:02:53.625Z,97869.28
2019-04-29T02:03:57.045Z,97866.45
2019-04-29T02:04:59.275Z,97874.35
2019-04-29T02:06:01.529Z,97863.67
2019-04-29T02:07:04.610Z,97865.22
2019-04-29T02:08:06.985Z,97870.53
2019-04-29T02:09:11.453Z,97862.22
2019-04-29T02:10:16.154Z,97869.77
2019-04-29T02:11:19.442Z,97865.66
2019-04-29T02:12:21.949Z,97859.19
2019-04-29T02:13:24.164Z,97864.63
2019-04-29T02:14:26.502Z,97863.80
2019-04-29T02:15:29.362Z,97864.64
2019-04-29T02:16:31.238Z,97864.23
2019-04-29T02:17:34.280Z,97865.13
2019-04-29T02:18:37.139Z,97852.26
2019-04-29T02:19:38.870Z,97861.86
2019-04-29T02:20:41.080Z,97863.00
2019-04-29T02:21:44.923Z,97855.95
2019-04-29T02:22:49.074Z,97859.06
2019-04-29T02:23:53.412Z,97870.00
2019-04-29T02:24:57.610Z,97862.47
2019-04-29T02:26:00.064Z,97861.20
2019-04-29T02:27:05.634Z,97862.97
2019-04-29T02:28:06.338Z,97857.48
2019-04-29T02:29:09.049Z,97864.86
2019-04-29T02:30:33.162Z,97859.95
2019-04-29T02:31:39.743Z,97859.52
2019-04-29T02:32:41.931Z,97860.84
2019-04-29T02:33:44.183Z,97859.33
2019-04-29T02:34:45.905Z,97858.44
2019-04-29T02:35:48.083Z,97858.92
2019-04-29T02:36:50.199Z,97860.30
2019-04-29T02:37:52.540Z,97858.17
2019-04-29T02:38:59.093Z,97861.63
2019-04-29T02:40:13.025Z,97858.48
2019-04-29T02:41:19.782Z,97854.38
2019-04-29T02:42:40.650Z,97859.52
2019-04-29T02:43:51.653Z,97851.80
2019-04-29T02:44:54.718Z,97859.14
2019-04-29T02:45:56.564Z,97858.89
2019-04-29T02:46:59.366Z,97856.80
2019-04-29T02:48:01.755Z,97863.49
2019-04-29T02:49:03.792Z,97858.24
2019-04-29T02:50:07.029Z,97863.49
2019-04-29T02:51:09.853Z,97856.36
2019-04-29T02:52:12.301Z,97862.17
2019-04-29T02:53:14.537Z,97854.33
2019-04-29T02:54:17.193Z,97856.77
2019-04-29T02:55:23.118Z,97862.16
2019-04-29T02:56:25.264Z,97855.20
2019-04-29T02:57:27.832Z,97860.20
2019-04-29T02:58:33.279Z,97854.20
2019-04-29T02:59:40.733Z,97859.09
2019-04-29T03:01:01.308Z,97857.36
2019-04-29T03:02:17.903Z,97858.74
2019-04-29T03:03:34.511Z,97860.02
2019-04-29T03:04:49.284Z,97859.70
2019-04-29T03:06:00.051Z,97861.47
2019-04-29T03:07:01.900Z,97858.06
2019-04-29T03:08:04.316Z,97858.74
2019-04-29T03:09:07.292Z,97854.85
2019-04-29T03:10:10.482Z,97856.23
2019-04-29T03:11:13.089Z,97858.44
2019-04-29T03:12:15.252Z,97861.09
2019-04-29T03:13:17.846Z,97854.45
2019-04-29T03:14:21.449Z,97864.20
2019-04-29T03:15:29.709Z,97861.28
2019-04-29T03:16:32.812Z,97859.95
2019-04-29T03:17:36.101Z,97861.73
2019-04-29T03:18:40.176Z,97856.98
2019-04-29T03:20:01.472Z,97859.77
2019-04-29T03:21:06.329Z,97863.75
2019-04-29T03:22:09.123Z,97862.20
2019-04-29T03:23:19.862Z,97862.48
2019-04-29T03:24:22.342Z,97860.78
2019-04-29T03:25:24.279Z,97863.62
2019-04-29T03:26:26.625Z,97864.39
2019-04-29T03:27:28.807Z,97863.38
2019-04-29T03:28:30.947Z,97869.18
2019-04-29T03:29:33.354Z,97865.76
2019-04-29T03:30:36.135Z,97874.67
2019-04-29T03:31:39.756Z,97862.03
2019-04-29T03:32:42.210Z,97869.50
2019-04-29T03:33:45.270Z,97866.27
2019-04-29T03:34:47.559Z,97871.52
2019-04-29T03:35:50.152Z,97866.96
2019-04-29T03:36:52.368Z,97870.64
2019-04-29T03:37:54.741Z,97866.96
2019-04-29T03:38:57.045Z,97866.27
2019-04-29T03:39:58.717Z,97864.83
2019-04-29T03:41:00.927Z,97866.09
2019-04-29T03:42:07.283Z,97860.97
2019-04-29T03:43:08.515Z,97866.90
2019-04-29T03:44:11.053Z,97862.61
2019-04-29T03:45:12.958Z,97851.67
2019-04-29T03:46:15.529Z,97857.23
2019-04-29T03:47:19.001Z,97858.22
2019-04-29T03:48:21.780Z,97856.59
2019-04-29T03:49:24.064Z,97847.17
2019-04-29T03:50:26.353Z,97853.63
2019-04-29T03:51:28.899Z,97848.25
2019-04-29T03:52:31.240Z,97849.95
2019-04-29T03:53:33.813Z,97846.67
2019-04-29T03:54:36.594Z,97846.27
2019-04-29T03:55:40.686Z,97851.28
2019-04-29T03:56:44.080Z,97854.33
2019-04-29T03:57:46.620Z,97851.98
2019-04-29T03:58:49.174Z,97860.78
2019-04-29T03:59:51.554Z,97855.28
2019-04-29T04:00:55.561Z,97859.24
2019-04-29T04:02:06.598Z,97859.30
2019-04-29T04:03:16.549Z,97854.39
2019-04-29T04:04:37.645Z,97853.56
2019-04-29T04:05:41.308Z,97854.36
2019-04-29T04:06:45.434Z,97855.32
2019-04-29T04:07:47.750Z,97852.55
2019-04-29T04:09:05.347Z,97859.77
2019-04-29T04:09:56.025Z,97867.21
2019-04-29T04:10:59.022Z,97865.72
2019-04-29T04:12:01.575Z,97863.44
2019-04-29T04:13:03.596Z,97862.05
2019-04-29T04:14:06.366Z,97861.90
2019-04-29T04:15:09.352Z,97853.93
2019-04-29T04:16:13.740Z,97864.49
2019-04-29T04:17:34.606Z,97866.13
2019-04-29T04:18:36.452Z,97861.31
2019-04-29T04:19:38.981Z,97866.06
2019-04-29T04:20:41.341Z,97864.06
2019-04-29T04:21:43.817Z,97867.27
2019-04-29T04:22:47.094Z,97869.30
2019-04-29T04:23:49.580Z,97869.37
2019-04-29T04:24:52.681Z,97868.88
2019-04-29T04:25:55.242Z,97871.96
2019-04-29T04:26:57.469Z,97873.14
2019-04-29T04:27:59.895Z,97873.97
2019-04-29T04:29:02.399Z,97871.81
2019-04-29T04:30:06.234Z,97876.50
2019-04-29T04:31:07.897Z,97882.31
2019-04-29T04:32:10.297Z,97877.77
2019-04-29T04:33:12.537Z,97876.75
2019-04-29T04:34:15.115Z,97874.72
2019-04-29T04:35:17.328Z,97876.75
2019-04-29T04:36:19.549Z,97878.70
2019-04-29T04:37:21.893Z,97883.95
2019-04-29T04:38:24.077Z,97886.48
2019-04-29T04:39:27.471Z,97891.30
2019-04-29T04:40:31.512Z,97894.58
2019-04-29T04:41:33.736Z,97892.60
2019-04-29T04:42:37.763Z,97898.31
2019-04-29T04:43:39.709Z,97896.16
2019-04-29T04:44:48.741Z,97894.89
2019-04-29T04:45:51.169Z,97891.55
2019-04-29T04:46:53.897Z,97894.89
2019-04-29T04:47:56.314Z,97891.45
2019-04-29T04:48:58.027Z,97889.64
2019-04-29T04:50:00.760Z,97896.77
2019-04-29T04:51:03.959Z,97895.84
2019-04-29T04:52:05.651Z,97898.44
2019-04-29T04:53:08.641Z,97899.55
2019-04-29T04:54:10.687Z,97890.53
2019-04-29T04:55:13.412Z,97893.99
2019-04-29T04:56:17.500Z,97895.63
2019-04-29T04:57:19.284Z,97898.59
2019-04-29T04:58:21.222Z,97897.55
2019-04-29T04:59:23.556Z,97896.77
2019-04-29T05:00:28.274Z,97896.77
2019-04-29T05:01:30.489Z,97893.44
2019-04-29T05:02:33.016Z,97898.99
2019-04-29T05:03:35.892Z,97897.17
2019-04-29T05:04:38.776Z,97893.56
2019-04-29T05:05:42.789Z,97893.80
2019-04-29T05:06:45.636Z,97895.97
2019-04-29T05:07:48.018Z,97892.17
2019-04-29T05:08:50.291Z,97889.70
2019-04-29T05:09:52.684Z,97883.23
2019-04-29T05:10:55.934Z,97883.05
2019-04-29T05:11:58.589Z,97887.28
2019-04-29T05:13:00.913Z,97887.78
2019-04-29T05:14:03.623Z,97883.18
2019-04-29T05:15:06.457Z,97880.95
2019-04-29T05:16:08.770Z,97884.81
2019-04-29T05:17:11.989Z,97884.94
2019-04-29T05:18:14.236Z,97886.39
2019-04-29T05:19:17.110Z,97881.23
2019-04-29T05:20:20.319Z,97887.23
2019-04-29T05:21:24.453Z,97884.75
2019-04-29T05:22:26.607Z,97885.49
2019-04-29T05:23:28.773Z,97883.36
2019-04-29T05:24:32.581Z,97882.81
2019-04-29T05:25:35.624Z,97889.52
2019-04-29T05:26:38.239Z,97887.88
2019-04-29T05:27:41.603Z,97886.14
2019-04-29T05:28:43.943Z,97889.94
2019-04-29T05:29:46.613Z,97886.64
2019-04-29T05:30:48.419Z,97883.05
2019-04-29T05:31:51.543Z,97888.15
2019-04-29T05:32:54.015Z,97884.38
2019-04-29T05:33:55.747Z,97884.75
2019-04-29T05:34:59.831Z,97885.28
2019-04-29T05:36:10.809Z,97884.94
2019-04-29T05:37:20.755Z,97889.70
2019-04-29T05:38:24.951Z,97889.30
2019-04-29T05:39:29.319Z,97886.05
2019-04-29T05:40:39.219Z,97882.94
2019-04-29T05:41:42.579Z,97884.69
2019-04-29T05:42:48.207Z,97891.33
2019-04-29T05:43:52.550Z,97889.60
2019-04-29T05:44:56.983Z,97889.05
2019-04-29T05:46:01.111Z,97890.91
2019-04-29T05:47:21.572Z,97889.76
2019-04-29T05:48:27.643Z,97891.58
2019-04-29T05:49:30.269Z,97886.17
2019-04-29T05:50:34.528Z,97888.27
2019-04-29T05:51:42.861Z,97887.19
2019-04-29T05:52:58.785Z,97885.80
2019-04-29T05:54:08.911Z,97889.84
2019-04-29T05:55:13.908Z,97889.05
2019-04-29T05:56:16.179Z,97890.63
2019-04-29T05:57:20.489Z,97887.41
2019-04-29T05:58:24.473Z,97893.99
2019-04-29T05:59:26.762Z,97892.36
2019-04-29T06:00:30.277Z,97894.17
2019-04-29T06:01:32.414Z,97892.11
2019-04-29T06:02:38.734Z,97891.70
2019-04-29T06:03:39.947Z,97890.47
2019-04-29T06:04:42.596Z,97894.91
2019-04-29T06:05:45.177Z,97892.02
2019-04-29T06:06:47.100Z,97900.05
2019-04-29T06:07:51.579Z,97899.23
2019-04-29T06:08:54.166Z,97894.23
2019-04-29T06:09:57.242Z,97894.80
2019-04-29T06:10:59.854Z,97894.55
2019-04-29T06:12:02.232Z,97897.08
2019-04-29T06:13:04.112Z,97899.15
2019-04-29T06:14:07.728Z,97895.22
2019-04-29T06:15:09.702Z,97899.39
2019-04-29T06:16:16.105Z,97899.58
2019-04-29T06:17:18.007Z,97897.91
2019-04-29T06:18:22.111Z,97894.30
2019-04-29T06:19:25.558Z,97896.58
2019-04-29T06:20:28.253Z,97896.11
2019-04-29T06:21:31.500Z,97896.42
2019-04-29T06:22:37.763Z,97895.56
2019-04-29T06:23:39.065Z,97897.38
2019-04-29T06:24:42.237Z,97900.84
2019-04-29T06:25:44.591Z,97901.43
2019-04-29T06:26:46.686Z,97892.50
2019-04-29T06:27:50.029Z,97892.69
2019-04-29T06:28:52.427Z,97890.93
2019-04-29T06:29:58.534Z,97893.99
2019-04-29T06:30:59.618Z,97898.19
2019-04-29T06:32:02.452Z,97890.50
2019-04-29T06:33:05.091Z,97896.00
2019-04-29T06:34:07.827Z,97889.50
2019-04-29T06:35:14.232Z,97894.62
2019-04-29T06:36:17.078Z,97889.84
2019-04-29T06:37:19.928Z,97891.97
2019-04-29T06:38:22.725Z,97889.00
2019-04-29T06:39:25.739Z,97893.30
2019-04-29T06:40:30.497Z,97894.44
2019-04-29T06:41:32.814Z,97891.91
2019-04-29T06:42:36.352Z,97887.37
2019-04-29T06:43:38.941Z,97897.45
2019-04-29T06:44:44.440Z,97900.41
2019-04-29T06:45:45.007Z,97899.15
2019-04-29T06:46:50.118Z,97899.58
2019-04-29T06:47:53.476Z,97908.02
2019-04-29T06:49:09.218Z,97900.80
2019-04-29T06:49:59.532Z,97907.61
2019-04-29T06:51:02.835Z,97905.45
2019-04-29T06:52:05.067Z,97911.84
2019-04-29T06:53:07.459Z,97909.66
2019-04-29T06:54:10.055Z,97908.83
2019-04-29T06:55:12.951Z,97911.88
2019-04-29T06:56:17.322Z,97910.34
2019-04-29T06:57:20.010Z,97912.51
2019-04-29T06:58:22.482Z,97913.23
2019-04-29T06:59:25.018Z,97910.88
2019-04-29T07:00:29.262Z,97907.50
2019-04-29T07:01:33.033Z,97907.62
2019-04-29T07:02:36.952Z,97911.53
2019-04-29T07:03:40.003Z,97912.86
2019-04-29T07:04:42.883Z,97913.10
2019-04-29T07:05:46.129Z,97907.56
2019-04-29T07:06:57.090Z,97911.53
2019-04-29T07:07:52.644Z,97904.65
2019-04-29T07:08:55.362Z,97902.59
2019-04-29T07:09:58.722Z,97902.77
2019-04-29T07:11:02.960Z,97907.84
2019-04-29T07:12:08.259Z,97906.59
2019-04-29T07:13:10.710Z,97910.57
2019-04-29T07:14:13.516Z,97913.28
2019-04-29T07:15:15.478Z,97903.27
2019-04-29T07:16:21.827Z,97900.55
2019-04-29T07:17:22.201Z,97901.16
2019-04-29T07:18:24.264Z,97899.34
2019-04-29T07:19:28.219Z,97903.81
2019-04-29T07:20:32.410Z,97903.70
2019-04-29T07:21:35.269Z,97900.36
2019-04-29T07:22:38.868Z,97901.45
2019-04-29T07:23:41.945Z,97901.14
2019-04-29T07:24:46.144Z,97900.42
2019-04-29T07:25:48.777Z,97905.02
2019-04-29T07:26:52.131Z,97900.73
2019-04-29T07:27:54.935Z,97905.11
2019-04-29T07:28:57.661Z,97906.48
2019-04-29T07:30:01.723Z,97911.88
2019-04-29T07:31:05.917Z,97914.33
2019-04-29T07:32:09.478Z,97911.36
2019-04-29T07:33:12.269Z,97914.73
2019-04-29T07:34:15.307Z,97910.24
2019-04-29T07:35:17.862Z,97910.16
2019-04-29T07:36:22.728Z,97910.34
2019-04-29T07:37:24.347Z,97913.83
2019-04-29T07:38:40.774Z,97908.61
2019-04-29T07:39:33.473Z,97917.74
2019-04-29T07:40:38.821Z,97920.89
2019-04-29T07:41:42.422Z,97915.39
2019-04-29T07:42:44.378Z,97915.38
2019-04-29T07:43:46.884Z,97914.70
2019-04-29T07:45:08.836Z,97912.25
2019-04-29T07:46:12.778Z,97915.02
2019-04-29T07:47:15.214Z,97910.07
2019-04-29T07:48:18.441Z,97905.61
2019-04-29T07:49:22.807Z,97913.58
2019-04-29T07:50:26.804Z,97916.62
2019-04-29T07:51:29.710Z,97920.02
2019-04-29T07:52:32.474Z,97923.30
2019-04-29T07:53:45.200Z,97923.25
2019-04-29T07:54:42.394Z,97920.95
2019-04-29T07:55:45.362Z,97918.23
2019-04-29T07:56:49.678Z,97917.55
2019-04-29T07:57:52.221Z,97918.58
2019-04-29T07:58:58.861Z,97914.66
2019-04-29T07:59:59.988Z,97916.48
2019-04-29T08:01:03.123Z,97918.23
2019-04-29T08:02:09.270Z,97918.52
2019-04-29T08:03:12.873Z,97920.87
2019-04-29T08:04:15.666Z,97926.45
2019-04-29T08:05:17.960Z,97917.67
2019-04-29T08:06:20.425Z,97921.02
2019-04-29T08:07:24.186Z,97921.80
2019-04-29T08:08:29.422Z,97920.33
2019-04-29T08:09:32.317Z,97920.83
2019-04-29T08:10:35.178Z,97921.97
2019-04-29T08:11:39.438Z,97920.33
2019-04-29T08:12:43.952Z,97920.95
2019-04-29T08:13:49.086Z,97914.77
2019-04-29T08:14:53.383Z,97920.33
2019-04-29T08:15:56.462Z,97924.50
2019-04-29T08:16:59.276Z,97921.61
2019-04-29T08:18:06.875Z,97921.42
2019-04-29T08:19:09.368Z,97925.65
2019-04-29T08:20:15.557Z,97922.46
2019-04-29T08:21:17.813Z,97922.98
2019-04-29T08:22:22.986Z,97925.34
2019-04-29T08:23:25.494Z,97924.25
2019-04-29T08:24:27.559Z,97922.92
2019-04-29T08:25:30.104Z,97925.77
2019-04-29T08:26:33.653Z,97924.32
2019-04-29T08:27:40.714Z,97922.03
2019-04-29T08:28:43.433Z,97921.48
2019-04-29T08:29:45.943Z,97925.20
2019-04-29T08:30:48.678Z,97926.86
2019-04-29T08:31:51.782Z,97929.70
2019-04-29T08:32:55.551Z,97926.00
2019-04-29T08:33:57.792Z,97931.10
2019-04-29T08:35:03.702Z,97929.16
2019-04-29T08:36:06.983Z,97930.91
2019-04-29T08:37:09.089Z,97930.22
2019-04-29T08:38:11.955Z,97933.77
2019-04-29T08:39:16.438Z,97925.12
2019-04-29T08:40:19.002Z,97928.19
2019-04-29T08:41:28.503Z,97929.40
2019-04-29T08:42:32.734Z,97936.86
2019-04-29T08:43:41.022Z,97941.83
2019-04-29T08:44:59.650Z,97940.84
2019-04-29T08:46:10.232Z,97936.62
2019-04-29T08:47:18.525Z,97942.28
2019-04-29T08:48:22.072Z,97947.17
2019-04-29T08:49:25.452Z,97944.03
2019-04-29T08:50:28.490Z,97939.72
2019-04-29T08:51:32.558Z,97941.05
2019-04-29T08:52:37.050Z,97942.45
2019-04-29T08:53:39.883Z,97945.30
2019-04-29T08:54:43.501Z,97944.09
2019-04-29T08:55:45.924Z,97940.63
2019-04-29T08:57:02.317Z,97939.08
2019-04-29T08:57:53.662Z,97943.59
2019-04-29T08:58:56.344Z,97940.94
2019-04-29T08:59:58.670Z,97943.97
2019-04-29T09:01:00.637Z,97938.39
2019-04-29T09:02:05.194Z,97937.68
2019-04-29T09:03:08.485Z,97935.09
2019-04-29T09:04:10.615Z,97939.75
2019-04-29T09:05:13.745Z,97935.43
2019-04-29T09:06:16.110Z,97939.38
2019-04-29T09:07:22.163Z,97938.96
2019-04-29T09:08:22.177Z,97939.08
2019-04-29T09:09:29.174Z,97934.89
2019-04-29T09:10:32.887Z,97942.81
2019-04-29T09:11:33.533Z,97941.63
2019-04-29T09:12:36.271Z,97943.41
2019-04-29T09:13:39.833Z,97944.73
2019-04-29T09:14:42.567Z,97941.91
2019-04-29T09:15:44.729Z,97938.94
2019-04-29T09:16:47.753Z,97943.05
2019-04-29T09:17:50.580Z,97943.97
2019-04-29T09:18:52.813Z,97943.41
2019-04-29T09:19:56.453Z,97940.75
2019-04-29T09:20:58.891Z,97941.36
2019-04-29T09:22:02.915Z,97943.17
2019-04-29T09:23:09.705Z,97941.91
2019-04-29T09:24:14.192Z,97940.22
2019-04-29T09:25:21.542Z,97940.41
2019-04-29T09:26:29.680Z,97941.55
2019-04-29T09:27:32.653Z,97940.75
2019-04-29T09:28:35.199Z,97940.95
2019-04-29T09:29:38.845Z,97940.70
2019-04-29T09:30:43.677Z,97939.79
2019-04-29T09:31:46.794Z,97940.87
2019-04-29T09:32:49.533Z,97941.24
2019-04-29T09:34:05.988Z,97940.51
2019-04-29T09:34:59.494Z,97941.60
2019-04-29T09:36:01.357Z,97943.73
2019-04-29T09:37:03.383Z,97944.14
2019-04-29T09:38:06.480Z,97945.05
2019-04-29T09:39:09.462Z,97945.84
2019-04-29T09:40:15.208Z,97948.30
2019-04-29T09:41:23.820Z,97951.58
2019-04-29T09:42:30.781Z,97948.18
2019-04-29T09:43:45.985Z,97944.38
2019-04-29T09:45:04.540Z,97950.25
2019-04-29T09:46:12.486Z,97946.38
2019-04-29T09:47:15.185Z,97948.94
2019-04-29T09:48:17.640Z,97941.06
2019-04-29T09:49:19.941Z,97945.41
2019-04-29T09:50:28.376Z,97936.33
2019-04-29T09:51:29.934Z,97936.09
2019-04-29T09:52:32.374Z,97936.28
2019-04-29T09:53:35.264Z,97935.43
2019-04-29T09:54:37.999Z,97937.75
2019-04-29T09:55:42.038Z,97934.48
2019-04-29T09:56:44.516Z,97938.59
2019-04-29T09:57:47.294Z,97941.67
2019-04-29T09:58:51.512Z,97940.27
2019-04-29T10:00:05.479Z,97941.19
2019-04-29T10:01:19.143Z,97939.13
2019-04-29T10:02:26.230Z,97944.20
2019-04-29T10:03:38.853Z,97942.14
2019-04-29T10:04:56.474Z,97944.39
2019-04-29T10:06:05.459Z,97942.07
2019-04-29T10:07:10.146Z,97937.06
2019-04-29T10:08:13.398Z,97938.81
2019-04-29T10:09:16.153Z,97937.48
2019-04-29T10:10:18.631Z,97936.16
2019-04-29T10:11:21.632Z,97941.97
2019-04-29T10:12:23.831Z,97935.84
2019-04-29T10:13:26.868Z,97937.74
2019-04-29T10:14:29.862Z,97938.53
2019-04-29T10:15:34.348Z,97931.27
2019-04-29T10:16:55.153Z,97934.63
2019-04-29T10:18:01.879Z,97935.30
2019-04-29T10:19:08.725Z,97934.09
2019-04-29T10:20:30.305Z,97935.66
2019-04-29T10:21:34.133Z,97937.19
2019-04-29T10:22:36.479Z,97937.42
2019-04-29T10:23:38.711Z,97927.80
2019-04-29T10:24:42.951Z,97940.80
2019-04-29T10:25:46.280Z,97937.86
2019-04-29T10:26:50.463Z,97934.33
2019-04-29T10:27:54.202Z,97940.61
2019-04-29T10:29:00.098Z,97939.28
2019-04-29T10:30:05.731Z,97941.47
2019-04-29T10:31:09.599Z,97941.41
2019-04-29T10:32:12.637Z,97942.30
2019-04-29T10:33:17.681Z,97943.16
2019-04-29T10:34:22.634Z,97946.18
2019-04-29T10:35:25.202Z,97947.41
2019-04-29T10:36:28.046Z,97947.52
2019-04-29T10:37:32.539Z,97941.78
2019-04-29T10:38:40.361Z,97942.44
2019-04-29T10:39:44.182Z,97946.91
2019-04-29T10:41:00.696Z,97945.88
2019-04-29T10:42:05.149Z,97948.85
2019-04-29T10:43:16.823Z,97949.80
2019-04-29T10:44:27.704Z,97952.05
2019-04-29T10:45:30.943Z,97954.64
2019-04-29T10:46:52.085Z,97956.20
2019-04-29T10:47:57.546Z,97957.69
2019-04-29T10:49:20.488Z,97956.97
2019-04-29T10:50:26.700Z,97951.59
2019-04-29T10:51:29.592Z,97951.19
2019-04-29T10:52:34.441Z,97948.13
2019-04-29T10:53:38.513Z,97953.04
2019-04-29T10:54:41.120Z,97950.87
2019-04-29T10:55:45.536Z,97954.91
2019-04-29T10:56:49.057Z,97952.66
2019-04-29T10:57:51.918Z,97951.33
2019-04-29T10:58:54.488Z,97952.77
2019-04-29T11:00:02.072Z,97955.77
2019-04-29T11:01:30.332Z,97955.30
2019-04-29T11:02:35.830Z,97948.33
2019-04-29T11:03:38.887Z,97952.45
2019-04-29T11:04:41.509Z,97954.31
2019-04-29T11:05:59.963Z,97955.86
2019-04-29T11:06:50.630Z,97951.44
2019-04-29T11:07:58.084Z,97947.16
2019-04-29T11:09:14.457Z,97951.37
2019-04-29T11:10:26.304Z,97952.11
2019-04-29T11:11:31.659Z,97950.27
2019-04-29T11:12:33.968Z,97950.47
2019-04-29T11:13:36.045Z,97949.55
2019-04-29T11:14:39.302Z,97953.65
2019-04-29T11:15:44.865Z,97951.19
2019-04-29T11:16:48.581Z,97958.80
2019-04-29T11:17:58.835Z,97953.86
2019-04-29T11:19:00.206Z,97951.91
2019-04-29T11:20:06.206Z,97951.17
2019-04-29T11:21:09.166Z,97953.44
2019-04-29T11:22:13.751Z,97954.98
2019-04-29T11:23:20.754Z,97957.02
2019-04-29T11:24:39.393Z,97962.45
2019-04-29T11:25:51.257Z,97956.62
2019-04-29T11:27:11.199Z,97958.85
2019-04-29T11:28:05.165Z,97962.85
2019-04-29T11:29:09.803Z,97957.12
2019-04-29T11:30:14.879Z,97960.52
2019-04-29T11:31:19.345Z,97959.88
2019-04-29T11:32:24.915Z,97954.84
2019-04-29T11:33:30.151Z,97960.31
2019-04-29T11:34:34.729Z,97960.61
2019-04-29T11:35:37.248Z,97951.88
2019-04-29T11:36:44.064Z,97952.41
2019-04-29T11:37:44.452Z,97949.84
2019-04-29T11:38:48.526Z,97952.81
2019-04-29T11:39:53.272Z,97948.72
2019-04-29T11:40:58.573Z,97949.81
2019-04-29T11:42:01.661Z,97946.55
2019-04-29T11:43:06.309Z,97952.69
2019-04-29T11:44:09.624Z,97950.12
2019-04-29T11:45:13.642Z,97946.64
2019-04-29T11:46:16.379Z,97943.45
2019-04-29T11:47:20.924Z,97940.38
2019-04-29T11:48:23.643Z,97942.52
2019-04-29T11:49:29.269Z,97942.02
2019-04-29T11:50:56.267Z,97947.25
2019-04-29T11:52:09.244Z,97946.31
2019-04-29T11:53:04.344Z,97945.41
2019-04-29T11:54:12.279Z,97944.61
2019-04-29T11:55:18.465Z,97952.52
2019-04-29T11:56:19.449Z,97944.08
2019-04-29T11:57:40.130Z,97953.41
2019-04-29T11:58:36.023Z,97949.72
2019-04-29T11:59:56.030Z,97949.84
2019-04-29T12:01:14.488Z,97945.64
2019-04-29T12:02:24.744Z,97949.74
2019-04-29T12:03:25.883Z,97948.41
2019-04-29T12:04:35.762Z,97946.27
2019-04-29T12:05:44.959Z,97945.13
2019-04-29T12:06:51.162Z,97944.41
2019-04-29T12:07:53.561Z,97944.94
2019-04-29T12:08:56.473Z,97946.07
2019-04-29T12:10:02.208Z,97939.60
2019-04-29T12:11:07.028Z,97944.00
2019-04-29T12:12:12.879Z,97936.41
2019-04-29T12:13:14.713Z,97939.17
2019-04-29T12:14:25.580Z,97937.64
2019-04-29T12:15:49.245Z,97946.45
2019-04-29T12:16:55.377Z,97938.55
2019-04-29T12:18:04.463Z,97942.15
2019-04-29T12:19:17.051Z,97938.05
2019-04-29T12:20:26.598Z,97940.18
2019-04-29T12:21:30.594Z,97932.41
2019-04-29T12:22:47.630Z,97942.47
2019-04-29T12:23:41.831Z,97942.77
2019-04-29T12:24:46.496Z,97937.14
2019-04-29T12:25:48.836Z,97941.77
2019-04-29T12:26:51.530Z,97942.46
2019-04-29T12:28:01.566Z,97935.09
2019-04-29T12:28:58.132Z,97936.64
2019-04-29T12:30:03.879Z,97930.47
2019-04-29T12:31:15.062Z,97933.34
2019-04-29T12:32:37.992Z,97926.34
2019-04-29T12:33:42.822Z,97923.38
2019-04-29T12:35:06.125Z,97922.54
2019-04-29T12:36:11.140Z,97922.94
2019-04-29T12:37:34.393Z,97929.91
2019-04-29T12:38:40.553Z,97927.34
2019-04-29T12:39:55.294Z,97929.94